sensor_id;sensor_type;location;lat;lon;timestamp;P1;durP1;ratioP1;P2;durP2;ratioP2
6987;SDS011;3534;49.960;8.018;2023-07-02T00:02:04;6.37;;;1.60;;
6987;SDS011;3534;49.960;8.018;2023-07-02T00:04:31;2.63;;;1.43;;
6987;SDS011;3534;49.960;8.018;2023-07-02T00:06:59;3.03;;;1.80;;
6987;SDS011;3534;49.960;8.018;2023-07-02T00:09:26;2.87;;;1.77;;
6987;SDS011;3534;49.960;8.018;2023-07-02T00:11:52;2.67;;;1.60;;
6987;SDS011;3534;49.960;8.018;2023-07-02T00:14:19;3.17;;;1.53;;
6987;SDS011;3534;49.960;8.018;2023-07-02T00:16:46;1.70;;;1.40;;
6987;SDS011;3534;49.960;8.018;2023-07-02T00:19:13;3.27;;;1.63;;
6987;SDS011;3534;49.960;8.018;2023-07-02T00:21:40;5.13;;;1.53;;
6987;SDS011;3534;49.960;8.018;2023-07-02T00:24:08;2.47;;;1.53;;
6987;SDS011;3534;49.960;8.018;2023-07-02T00:26:36;2.70;;;1.50;;
6987;SDS011;3534;49.960;8.018;2023-07-02T00:29:03;4.03;;;1.53;;
6987;SDS011;3534;49.960;8.018;2023-07-02T00:31:31;3.67;;;1.90;;
6987;SDS011;3534;49.960;8.018;2023-07-02T00:33:58;3.77;;;1.40;;
6987;SDS011;3534;49.960;8.018;2023-07-02T00:36:25;7.10;;;1.43;;
6987;SDS011;3534;49.960;8.018;2023-07-02T00:38:52;2.30;;;1.57;;
6987;SDS011;3534;49.960;8.018;2023-07-02T00:41:20;6.67;;;1.90;;
6987;SDS011;3534;49.960;8.018;2023-07-02T00:43:47;2.10;;;1.30;;
6987;SDS011;3534;49.960;8.018;2023-07-02T00:46:14;15.13;;;2.33;;
6987;SDS011;3534;49.960;8.018;2023-07-02T00:48:45;3.20;;;1.60;;
6987;SDS011;3534;49.960;8.018;2023-07-02T00:51:12;2.13;;;1.57;;
6987;SDS011;3534;49.960;8.018;2023-07-02T00:53:41;4.50;;;2.10;;
6987;SDS011;3534;49.960;8.018;2023-07-02T00:56:09;5.17;;;1.90;;
6987;SDS011;3534;49.960;8.018;2023-07-02T00:58:38;4.03;;;1.70;;
6987;SDS011;3534;49.960;8.018;2023-07-02T01:01:11;3.73;;;1.63;;
6987;SDS011;3534;49.960;8.018;2023-07-02T01:03:38;3.80;;;1.83;;
6987;SDS011;3534;49.960;8.018;2023-07-02T01:06:06;2.17;;;1.47;;
6987;SDS011;3534;49.960;8.018;2023-07-02T01:08:32;4.37;;;1.57;;
6987;SDS011;3534;49.960;8.018;2023-07-02T01:10:59;3.53;;;1.40;;
6987;SDS011;3534;49.960;8.018;2023-07-02T01:13:26;4.10;;;1.30;;
6987;SDS011;3534;49.960;8.018;2023-07-02T01:15:54;2.60;;;1.70;;
6987;SDS011;3534;49.960;8.018;2023-07-02T01:18:21;2.57;;;1.53;;
6987;SDS011;3534;49.960;8.018;2023-07-02T01:20:49;2.87;;;1.90;;
6987;SDS011;3534;49.960;8.018;2023-07-02T01:23:18;3.33;;;1.73;;
6987;SDS011;3534;49.960;8.018;2023-07-02T01:25:45;4.10;;;2.20;;
6987;SDS011;3534;49.960;8.018;2023-07-02T01:28:12;2.60;;;2.03;;
6987;SDS011;3534;49.960;8.018;2023-07-02T01:30:39;4.50;;;2.00;;
6987;SDS011;3534;49.960;8.018;2023-07-02T01:33:06;3.90;;;2.40;;
6987;SDS011;3534;49.960;8.018;2023-07-02T01:35:33;6.47;;;2.30;;
6987;SDS011;3534;49.960;8.018;2023-07-02T01:38:01;6.60;;;2.60;;
6987;SDS011;3534;49.960;8.018;2023-07-02T01:40:28;4.77;;;2.40;;
6987;SDS011;3534;49.960;8.018;2023-07-02T01:42:54;4.87;;;2.40;;
6987;SDS011;3534;49.960;8.018;2023-07-02T01:45:21;7.63;;;2.97;;
6987;SDS011;3534;49.960;8.018;2023-07-02T01:47:47;8.13;;;2.50;;
6987;SDS011;3534;49.960;8.018;2023-07-02T01:50:14;6.10;;;2.60;;
6987;SDS011;3534;49.960;8.018;2023-07-02T01:52:41;5.37;;;3.10;;
6987;SDS011;3534;49.960;8.018;2023-07-02T01:55:09;5.93;;;3.10;;
6987;SDS011;3534;49.960;8.018;2023-07-02T01:57:36;29.97;;;10.70;;
6987;SDS011;3534;49.960;8.018;2023-07-02T02:00:02;16.20;;;5.90;;
6987;SDS011;3534;49.960;8.018;2023-07-02T02:02:32;8.93;;;3.53;;
6987;SDS011;3534;49.960;8.018;2023-07-02T02:04:58;4.50;;;3.20;;
6987;SDS011;3534;49.960;8.018;2023-07-02T02:07:25;5.80;;;2.93;;
6987;SDS011;3534;49.960;8.018;2023-07-02T02:09:52;5.47;;;2.93;;
6987;SDS011;3534;49.960;8.018;2023-07-02T02:12:20;4.77;;;3.13;;
6987;SDS011;3534;49.960;8.018;2023-07-02T02:14:46;7.23;;;3.33;;
6987;SDS011;3534;49.960;8.018;2023-07-02T02:17:13;11.23;;;3.83;;
6987;SDS011;3534;49.960;8.018;2023-07-02T02:19:40;7.60;;;4.10;;
6987;SDS011;3534;49.960;8.018;2023-07-02T02:22:06;6.70;;;3.90;;
6987;SDS011;3534;49.960;8.018;2023-07-02T02:24:33;7.40;;;3.70;;
6987;SDS011;3534;49.960;8.018;2023-07-02T02:27:00;9.63;;;4.00;;
6987;SDS011;3534;49.960;8.018;2023-07-02T02:29:28;6.47;;;3.97;;
6987;SDS011;3534;49.960;8.018;2023-07-02T02:31:54;9.93;;;5.10;;
6987;SDS011;3534;49.960;8.018;2023-07-02T02:34:21;7.17;;;4.13;;
6987;SDS011;3534;49.960;8.018;2023-07-02T02:36:47;9.47;;;4.60;;
6987;SDS011;3534;49.960;8.018;2023-07-02T02:39:15;11.77;;;4.10;;
6987;SDS011;3534;49.960;8.018;2023-07-02T02:41:41;7.47;;;4.07;;
6987;SDS011;3534;49.960;8.018;2023-07-02T02:44:08;7.40;;;3.83;;
6987;SDS011;3534;49.960;8.018;2023-07-02T02:46:36;9.40;;;4.70;;
6987;SDS011;3534;49.960;8.018;2023-07-02T02:49:03;7.80;;;4.50;;
6987;SDS011;3534;49.960;8.018;2023-07-02T02:51:29;13.60;;;5.50;;
6987;SDS011;3534;49.960;8.018;2023-07-02T02:53:56;9.30;;;4.60;;
6987;SDS011;3534;49.960;8.018;2023-07-02T02:56:23;8.30;;;4.37;;
6987;SDS011;3534;49.960;8.018;2023-07-02T02:58:49;10.70;;;4.90;;
6987;SDS011;3534;49.960;8.018;2023-07-02T03:01:16;10.70;;;4.77;;
6987;SDS011;3534;49.960;8.018;2023-07-02T03:03:44;11.90;;;4.83;;
6987;SDS011;3534;49.960;8.018;2023-07-02T03:06:11;9.40;;;4.80;;
6987;SDS011;3534;49.960;8.018;2023-07-02T03:08:39;8.23;;;4.70;;
6987;SDS011;3534;49.960;8.018;2023-07-02T03:11:06;11.83;;;5.47;;
6987;SDS011;3534;49.960;8.018;2023-07-02T03:13:32;10.53;;;5.33;;
6987;SDS011;3534;49.960;8.018;2023-07-02T03:15:59;8.50;;;5.03;;
6987;SDS011;3534;49.960;8.018;2023-07-02T03:18:26;10.30;;;5.23;;
6987;SDS011;3534;49.960;8.018;2023-07-02T03:20:54;7.20;;;5.30;;
6987;SDS011;3534;49.960;8.018;2023-07-02T03:23:20;12.73;;;5.10;;
6987;SDS011;3534;49.960;8.018;2023-07-02T03:25:47;10.77;;;4.90;;
6987;SDS011;3534;49.960;8.018;2023-07-02T03:28:14;10.07;;;5.03;;
6987;SDS011;3534;49.960;8.018;2023-07-02T03:30:40;10.97;;;5.20;;
6987;SDS011;3534;49.960;8.018;2023-07-02T03:33:08;10.60;;;5.10;;
6987;SDS011;3534;49.960;8.018;2023-07-02T03:35:34;11.93;;;5.77;;
6987;SDS011;3534;49.960;8.018;2023-07-02T03:38:03;11.80;;;5.30;;
6987;SDS011;3534;49.960;8.018;2023-07-02T03:40:29;10.00;;;5.07;;
6987;SDS011;3534;49.960;8.018;2023-07-02T03:42:56;10.10;;;4.90;;
6987;SDS011;3534;49.960;8.018;2023-07-02T03:45:23;10.47;;;5.83;;
6987;SDS011;3534;49.960;8.018;2023-07-02T03:47:49;14.10;;;5.40;;
6987;SDS011;3534;49.960;8.018;2023-07-02T03:50:16;10.67;;;5.50;;
6987;SDS011;3534;49.960;8.018;2023-07-02T03:52:43;11.20;;;6.30;;
6987;SDS011;3534;49.960;8.018;2023-07-02T03:55:11;11.50;;;5.23;;
6987;SDS011;3534;49.960;8.018;2023-07-02T03:57:38;12.60;;;5.70;;
6987;SDS011;3534;49.960;8.018;2023-07-02T04:00:05;17.20;;;6.90;;
6987;SDS011;3534;49.960;8.018;2023-07-02T04:02:34;10.83;;;5.27;;
6987;SDS011;3534;49.960;8.018;2023-07-02T04:05:01;11.00;;;5.90;;
6987;SDS011;3534;49.960;8.018;2023-07-02T04:07:28;11.10;;;5.20;;
6987;SDS011;3534;49.960;8.018;2023-07-02T04:09:55;11.60;;;5.70;;
6987;SDS011;3534;49.960;8.018;2023-07-02T04:12:23;10.33;;;4.87;;
6987;SDS011;3534;49.960;8.018;2023-07-02T04:14:49;7.53;;;4.77;;
6987;SDS011;3534;49.960;8.018;2023-07-02T04:17:16;16.30;;;5.93;;
6987;SDS011;3534;49.960;8.018;2023-07-02T04:19:43;11.50;;;5.07;;
6987;SDS011;3534;49.960;8.018;2023-07-02T04:22:10;9.77;;;5.57;;
6987;SDS011;3534;49.960;8.018;2023-07-02T04:24:37;10.47;;;6.00;;
6987;SDS011;3534;49.960;8.018;2023-07-02T04:27:04;7.33;;;4.73;;
6987;SDS011;3534;49.960;8.018;2023-07-02T04:29:32;10.10;;;5.10;;
6987;SDS011;3534;49.960;8.018;2023-07-02T04:31:59;14.50;;;5.37;;
6987;SDS011;3534;49.960;8.018;2023-07-02T04:34:25;13.90;;;6.03;;
6987;SDS011;3534;49.960;8.018;2023-07-02T04:36:52;9.17;;;5.00;;
6987;SDS011;3534;49.960;8.018;2023-07-02T04:39:18;10.53;;;5.97;;
6987;SDS011;3534;49.960;8.018;2023-07-02T04:41:45;11.50;;;6.43;;
6987;SDS011;3534;49.960;8.018;2023-07-02T04:44:14;13.03;;;6.43;;
6987;SDS011;3534;49.960;8.018;2023-07-02T04:46:42;9.70;;;5.70;;
6987;SDS011;3534;49.960;8.018;2023-07-02T04:49:08;10.67;;;6.20;;
6987;SDS011;3534;49.960;8.018;2023-07-02T04:51:35;11.60;;;6.00;;
6987;SDS011;3534;49.960;8.018;2023-07-02T04:54:01;14.83;;;6.83;;
6987;SDS011;3534;49.960;8.018;2023-07-02T04:56:28;14.80;;;5.80;;
6987;SDS011;3534;49.960;8.018;2023-07-02T04:58:55;10.23;;;5.80;;
6987;SDS011;3534;49.960;8.018;2023-07-02T05:01:21;14.53;;;6.93;;
6987;SDS011;3534;49.960;8.018;2023-07-02T05:03:49;15.63;;;6.10;;
6987;SDS011;3534;49.960;8.018;2023-07-02T05:06:16;14.30;;;6.90;;
6987;SDS011;3534;49.960;8.018;2023-07-02T05:08:42;14.97;;;6.37;;
6987;SDS011;3534;49.960;8.018;2023-07-02T05:11:10;14.03;;;5.93;;
6987;SDS011;3534;49.960;8.018;2023-07-02T05:13:37;17.73;;;6.77;;
6987;SDS011;3534;49.960;8.018;2023-07-02T05:16:03;17.23;;;6.70;;
6987;SDS011;3534;49.960;8.018;2023-07-02T05:18:30;23.67;;;6.93;;
6987;SDS011;3534;49.960;8.018;2023-07-02T05:20:58;18.70;;;7.17;;
6987;SDS011;3534;49.960;8.018;2023-07-02T05:23:25;11.37;;;6.43;;
6987;SDS011;3534;49.960;8.018;2023-07-02T05:25:51;19.10;;;7.80;;
6987;SDS011;3534;49.960;8.018;2023-07-02T05:28:18;11.90;;;7.10;;
6987;SDS011;3534;49.960;8.018;2023-07-02T05:30:44;13.63;;;7.30;;
6987;SDS011;3534;49.960;8.018;2023-07-02T05:33:11;15.47;;;7.30;;
6987;SDS011;3534;49.960;8.018;2023-07-02T05:35:38;16.73;;;7.67;;
6987;SDS011;3534;49.960;8.018;2023-07-02T05:38:06;16.97;;;7.83;;
6987;SDS011;3534;49.960;8.018;2023-07-02T05:40:33;19.23;;;7.70;;
6987;SDS011;3534;49.960;8.018;2023-07-02T05:42:59;21.10;;;7.97;;
6987;SDS011;3534;49.960;8.018;2023-07-02T05:45:26;16.13;;;7.47;;
6987;SDS011;3534;49.960;8.018;2023-07-02T05:47:54;18.60;;;8.73;;
6987;SDS011;3534;49.960;8.018;2023-07-02T05:50:20;17.17;;;8.50;;
6987;SDS011;3534;49.960;8.018;2023-07-02T05:52:47;19.83;;;8.40;;
6987;SDS011;3534;49.960;8.018;2023-07-02T05:55:15;20.33;;;7.50;;
6987;SDS011;3534;49.960;8.018;2023-07-02T05:57:41;16.67;;;7.90;;
6987;SDS011;3534;49.960;8.018;2023-07-02T06:00:08;20.10;;;9.60;;
6987;SDS011;3534;49.960;8.018;2023-07-02T06:02:36;19.50;;;9.50;;
6987;SDS011;3534;49.960;8.018;2023-07-02T06:05:03;17.93;;;9.47;;
6987;SDS011;3534;49.960;8.018;2023-07-02T06:07:30;15.33;;;8.10;;
6987;SDS011;3534;49.960;8.018;2023-07-02T06:09:56;20.43;;;9.60;;
6987;SDS011;3534;49.960;8.018;2023-07-02T06:12:24;17.53;;;9.57;;
6987;SDS011;3534;49.960;8.018;2023-07-02T06:14:51;18.07;;;9.10;;
6987;SDS011;3534;49.960;8.018;2023-07-02T06:17:18;20.93;;;9.90;;
6987;SDS011;3534;49.960;8.018;2023-07-02T06:19:45;21.60;;;9.53;;
6987;SDS011;3534;49.960;8.018;2023-07-02T06:22:12;20.63;;;11.00;;
6987;SDS011;3534;49.960;8.018;2023-07-02T06:24:39;20.00;;;10.90;;
6987;SDS011;3534;49.960;8.018;2023-07-02T06:27:05;22.03;;;10.33;;
6987;SDS011;3534;49.960;8.018;2023-07-02T06:29:33;23.87;;;10.60;;
6987;SDS011;3534;49.960;8.018;2023-07-02T06:32:00;20.67;;;9.90;;
6987;SDS011;3534;49.960;8.018;2023-07-02T06:34:27;26.20;;;10.70;;
6987;SDS011;3534;49.960;8.018;2023-07-02T06:36:53;20.80;;;10.40;;
6987;SDS011;3534;49.960;8.018;2023-07-02T06:39:20;22.40;;;11.00;;
6987;SDS011;3534;49.960;8.018;2023-07-02T06:41:46;17.77;;;9.73;;
6987;SDS011;3534;49.960;8.018;2023-07-02T06:44:13;20.83;;;10.20;;
6987;SDS011;3534;49.960;8.018;2023-07-02T06:46:41;24.13;;;11.00;;
6987;SDS011;3534;49.960;8.018;2023-07-02T06:49:08;19.17;;;9.77;;
6987;SDS011;3534;49.960;8.018;2023-07-02T06:51:34;18.30;;;9.67;;
6987;SDS011;3534;49.960;8.018;2023-07-02T06:54:01;23.27;;;10.27;;
6987;SDS011;3534;49.960;8.018;2023-07-02T06:56:28;20.57;;;10.30;;
6987;SDS011;3534;49.960;8.018;2023-07-02T06:58:54;18.10;;;10.43;;
6987;SDS011;3534;49.960;8.018;2023-07-02T07:01:21;21.93;;;10.93;;
6987;SDS011;3534;49.960;8.018;2023-07-02T07:03:49;21.37;;;11.00;;
6987;SDS011;3534;49.960;8.018;2023-07-02T07:06:16;21.63;;;10.37;;
6987;SDS011;3534;49.960;8.018;2023-07-02T07:08:42;22.43;;;11.53;;
6987;SDS011;3534;49.960;8.018;2023-07-02T07:11:09;23.53;;;10.70;;
6987;SDS011;3534;49.960;8.018;2023-07-02T07:13:35;24.17;;;10.90;;
6987;SDS011;3534;49.960;8.018;2023-07-02T07:16:02;21.17;;;11.80;;
6987;SDS011;3534;49.960;8.018;2023-07-02T07:18:29;18.80;;;10.87;;
6987;SDS011;3534;49.960;8.018;2023-07-02T07:20:57;25.90;;;10.67;;
6987;SDS011;3534;49.960;8.018;2023-07-02T07:23:24;23.17;;;11.13;;
6987;SDS011;3534;49.960;8.018;2023-07-02T07:25:50;18.30;;;10.47;;
6987;SDS011;3534;49.960;8.018;2023-07-02T07:28:17;20.57;;;11.10;;
6987;SDS011;3534;49.960;8.018;2023-07-02T07:30:44;19.80;;;10.90;;
6987;SDS011;3534;49.960;8.018;2023-07-02T07:33:10;17.00;;;9.30;;
6987;SDS011;3534;49.960;8.018;2023-07-02T07:35:37;21.60;;;10.70;;
6987;SDS011;3534;49.960;8.018;2023-07-02T07:38:05;21.33;;;11.30;;
6987;SDS011;3534;49.960;8.018;2023-07-02T07:40:32;20.30;;;11.67;;
6987;SDS011;3534;49.960;8.018;2023-07-02T07:42:58;21.03;;;10.10;;
6987;SDS011;3534;49.960;8.018;2023-07-02T07:45:25;15.77;;;10.17;;
6987;SDS011;3534;49.960;8.018;2023-07-02T07:47:52;20.70;;;10.53;;
6987;SDS011;3534;49.960;8.018;2023-07-02T07:50:18;22.77;;;10.30;;
6987;SDS011;3534;49.960;8.018;2023-07-02T07:52:45;19.20;;;10.47;;
6987;SDS011;3534;49.960;8.018;2023-07-02T07:55:13;18.60;;;9.43;;
6987;SDS011;3534;49.960;8.018;2023-07-02T07:57:39;19.00;;;9.93;;
6987;SDS011;3534;49.960;8.018;2023-07-02T08:00:06;21.13;;;9.30;;
6987;SDS011;3534;49.960;8.018;2023-07-02T08:02:36;21.20;;;11.20;;
6987;SDS011;3534;49.960;8.018;2023-07-02T08:05:02;16.60;;;9.90;;
6987;SDS011;3534;49.960;8.018;2023-07-02T08:07:30;18.60;;;9.70;;
6987;SDS011;3534;49.960;8.018;2023-07-02T08:09:58;18.87;;;10.00;;
6987;SDS011;3534;49.960;8.018;2023-07-02T08:12:26;24.23;;;11.17;;
6987;SDS011;3534;49.960;8.018;2023-07-02T08:14:54;17.80;;;9.80;;
6987;SDS011;3534;49.960;8.018;2023-07-02T08:17:21;25.53;;;10.00;;
6987;SDS011;3534;49.960;8.018;2023-07-02T08:19:47;17.90;;;8.97;;
6987;SDS011;3534;49.960;8.018;2023-07-02T08:22:14;21.40;;;9.13;;
6987;SDS011;3534;49.960;8.018;2023-07-02T08:24:41;20.50;;;8.87;;
6987;SDS011;3534;49.960;8.018;2023-07-02T08:27:07;16.90;;;10.30;;
6987;SDS011;3534;49.960;8.018;2023-07-02T08:29:36;19.90;;;10.87;;
6987;SDS011;3534;49.960;8.018;2023-07-02T08:32:03;18.23;;;9.40;;
6987;SDS011;3534;49.960;8.018;2023-07-02T08:34:30;25.50;;;10.50;;
6987;SDS011;3534;49.960;8.018;2023-07-02T08:36:57;16.63;;;8.93;;
6987;SDS011;3534;49.960;8.018;2023-07-02T08:39:23;17.30;;;9.40;;
6987;SDS011;3534;49.960;8.018;2023-07-02T08:41:50;15.73;;;9.30;;
6987;SDS011;3534;49.960;8.018;2023-07-02T08:44:19;20.77;;;10.03;;
6987;SDS011;3534;49.960;8.018;2023-07-02T08:46:48;17.70;;;8.90;;
6987;SDS011;3534;49.960;8.018;2023-07-02T08:49:18;19.80;;;9.93;;
6987;SDS011;3534;49.960;8.018;2023-07-02T08:51:45;26.30;;;10.50;;
6987;SDS011;3534;49.960;8.018;2023-07-02T08:54:12;18.00;;;10.27;;
6987;SDS011;3534;49.960;8.018;2023-07-02T08:56:39;19.93;;;10.17;;
6987;SDS011;3534;49.960;8.018;2023-07-02T08:59:06;20.70;;;10.37;;
6987;SDS011;3534;49.960;8.018;2023-07-02T09:01:43;20.10;;;10.77;;
6987;SDS011;3534;49.960;8.018;2023-07-02T09:04:15;30.07;;;10.70;;
6987;SDS011;3534;49.960;8.018;2023-07-02T09:06:45;19.23;;;10.37;;
6987;SDS011;3534;49.960;8.018;2023-07-02T09:09:12;22.10;;;10.93;;
6987;SDS011;3534;49.960;8.018;2023-07-02T09:11:48;17.73;;;10.50;;
6987;SDS011;3534;49.960;8.018;2023-07-02T09:14:23;19.73;;;9.87;;
6987;SDS011;3534;49.960;8.018;2023-07-02T09:17:00;17.33;;;10.40;;
6987;SDS011;3534;49.960;8.018;2023-07-02T09:19:29;19.67;;;9.50;;
6987;SDS011;3534;49.960;8.018;2023-07-02T09:21:57;14.33;;;8.40;;
6987;SDS011;3534;49.960;8.018;2023-07-02T09:24:25;17.10;;;9.43;;
6987;SDS011;3534;49.960;8.018;2023-07-02T09:26:53;14.47;;;9.03;;
6987;SDS011;3534;49.960;8.018;2023-07-02T09:29:22;19.07;;;9.70;;
6987;SDS011;3534;49.960;8.018;2023-07-02T09:31:49;19.13;;;9.93;;
6987;SDS011;3534;49.960;8.018;2023-07-02T09:34:16;25.60;;;10.00;;
6987;SDS011;3534;49.960;8.018;2023-07-02T09:36:44;21.97;;;9.90;;
6987;SDS011;3534;49.960;8.018;2023-07-02T09:39:12;21.90;;;10.20;;
6987;SDS011;3534;49.960;8.018;2023-07-02T09:41:40;17.50;;;10.50;;
6987;SDS011;3534;49.960;8.018;2023-07-02T09:44:07;18.77;;;8.07;;
6987;SDS011;3534;49.960;8.018;2023-07-02T09:46:35;14.70;;;8.00;;
6987;SDS011;3534;49.960;8.018;2023-07-02T09:49:08;21.20;;;10.30;;
6987;SDS011;3534;49.960;8.018;2023-07-02T09:51:40;22.87;;;9.10;;
6987;SDS011;3534;49.960;8.018;2023-07-02T09:54:09;13.97;;;7.80;;
6987;SDS011;3534;49.960;8.018;2023-07-02T09:56:36;14.80;;;9.80;;
6987;SDS011;3534;49.960;8.018;2023-07-02T09:59:03;21.23;;;10.30;;
6987;SDS011;3534;49.960;8.018;2023-07-02T10:01:30;21.47;;;8.90;;
6987;SDS011;3534;49.960;8.018;2023-07-02T10:03:57;18.67;;;9.60;;
6987;SDS011;3534;49.960;8.018;2023-07-02T10:06:24;16.83;;;10.37;;
6987;SDS011;3534;49.960;8.018;2023-07-02T10:08:54;17.40;;;9.50;;
6987;SDS011;3534;49.960;8.018;2023-07-02T10:11:32;16.10;;;10.47;;
6987;SDS011;3534;49.960;8.018;2023-07-02T10:14:00;15.80;;;9.20;;
6987;SDS011;3534;49.960;8.018;2023-07-02T10:16:27;17.23;;;9.60;;
6987;SDS011;3534;49.960;8.018;2023-07-02T10:19:07;18.90;;;9.27;;
6987;SDS011;3534;49.960;8.018;2023-07-02T10:21:34;13.90;;;8.90;;
6987;SDS011;3534;49.960;8.018;2023-07-02T10:24:08;22.57;;;10.90;;
6987;SDS011;3534;49.960;8.018;2023-07-02T10:26:37;17.73;;;10.50;;
6987;SDS011;3534;49.960;8.018;2023-07-02T10:29:03;17.63;;;10.53;;
6987;SDS011;3534;49.960;8.018;2023-07-02T10:31:32;29.43;;;10.47;;
6987;SDS011;3534;49.960;8.018;2023-07-02T10:33:58;22.03;;;10.70;;
6987;SDS011;3534;49.960;8.018;2023-07-02T10:36:25;20.80;;;10.63;;
6987;SDS011;3534;49.960;8.018;2023-07-02T10:38:52;18.83;;;10.83;;
6987;SDS011;3534;49.960;8.018;2023-07-02T10:41:25;22.03;;;11.50;;
6987;SDS011;3534;49.960;8.018;2023-07-02T10:43:53;20.83;;;11.40;;
6987;SDS011;3534;49.960;8.018;2023-07-02T10:46:21;17.47;;;10.00;;
6987;SDS011;3534;49.960;8.018;2023-07-02T10:48:52;20.50;;;10.70;;
6987;SDS011;3534;49.960;8.018;2023-07-02T10:51:20;20.07;;;11.20;;
6987;SDS011;3534;49.960;8.018;2023-07-02T10:53:55;24.67;;;12.50;;
6987;SDS011;3534;49.960;8.018;2023-07-02T10:56:23;20.10;;;12.27;;
6987;SDS011;3534;49.960;8.018;2023-07-02T10:58:50;17.87;;;10.67;;
6987;SDS011;3534;49.960;8.018;2023-07-02T11:01:22;19.23;;;10.67;;
6987;SDS011;3534;49.960;8.018;2023-07-02T11:04:00;21.90;;;10.97;;
6987;SDS011;3534;49.960;8.018;2023-07-02T11:06:27;17.83;;;10.60;;
6987;SDS011;3534;49.960;8.018;2023-07-02T11:08:55;15.83;;;10.50;;
6987;SDS011;3534;49.960;8.018;2023-07-02T11:11:22;20.27;;;10.90;;
6987;SDS011;3534;49.960;8.018;2023-07-02T11:13:50;18.00;;;9.73;;
6987;SDS011;3534;49.960;8.018;2023-07-02T11:16:18;17.83;;;10.17;;
6987;SDS011;3534;49.960;8.018;2023-07-02T11:18:49;19.83;;;10.43;;
6987;SDS011;3534;49.960;8.018;2023-07-02T11:21:15;21.50;;;11.60;;
6987;SDS011;3534;49.960;8.018;2023-07-02T11:23:42;17.30;;;10.73;;
6987;SDS011;3534;49.960;8.018;2023-07-02T11:26:09;17.00;;;9.90;;
6987;SDS011;3534;49.960;8.018;2023-07-02T11:28:36;18.43;;;10.37;;
6987;SDS011;3534;49.960;8.018;2023-07-02T11:31:13;17.47;;;9.60;;
6987;SDS011;3534;49.960;8.018;2023-07-02T11:33:40;25.43;;;10.23;;
6987;SDS011;3534;49.960;8.018;2023-07-02T11:36:18;21.23;;;10.30;;
6987;SDS011;3534;49.960;8.018;2023-07-02T11:38:46;17.93;;;9.33;;
6987;SDS011;3534;49.960;8.018;2023-07-02T11:41:13;27.90;;;10.27;;
6987;SDS011;3534;49.960;8.018;2023-07-02T11:43:40;18.10;;;10.40;;
6987;SDS011;3534;49.960;8.018;2023-07-02T11:46:06;18.77;;;10.30;;
6987;SDS011;3534;49.960;8.018;2023-07-02T11:48:33;18.50;;;9.80;;
6987;SDS011;3534;49.960;8.018;2023-07-02T11:51:00;17.23;;;9.93;;
6987;SDS011;3534;49.960;8.018;2023-07-02T11:53:28;15.73;;;10.80;;
6987;SDS011;3534;49.960;8.018;2023-07-02T11:55:54;18.63;;;10.20;;
6987;SDS011;3534;49.960;8.018;2023-07-02T11:58:21;21.00;;;11.53;;
6987;SDS011;3534;49.960;8.018;2023-07-02T12:00:48;17.90;;;11.00;;
6987;SDS011;3534;49.960;8.018;2023-07-02T12:03:14;21.13;;;11.67;;
6987;SDS011;3534;49.960;8.018;2023-07-02T12:05:41;20.90;;;11.40;;
6987;SDS011;3534;49.960;8.018;2023-07-02T12:08:08;19.60;;;12.10;;
6987;SDS011;3534;49.960;8.018;2023-07-02T12:10:36;18.93;;;10.80;;
6987;SDS011;3534;49.960;8.018;2023-07-02T12:13:02;25.33;;;11.60;;
6987;SDS011;3534;49.960;8.018;2023-07-02T12:15:29;21.87;;;11.50;;
6987;SDS011;3534;49.960;8.018;2023-07-02T12:17:55;21.90;;;11.90;;
6987;SDS011;3534;49.960;8.018;2023-07-02T12:20:22;18.77;;;11.20;;
6987;SDS011;3534;49.960;8.018;2023-07-02T12:22:49;18.70;;;10.80;;
6987;SDS011;3534;49.960;8.018;2023-07-02T12:25:15;17.50;;;11.07;;
6987;SDS011;3534;49.960;8.018;2023-07-02T12:27:44;20.07;;;11.90;;
6987;SDS011;3534;49.960;8.018;2023-07-02T12:30:10;19.70;;;11.70;;
6987;SDS011;3534;49.960;8.018;2023-07-02T12:32:42;25.80;;;10.67;;
6987;SDS011;3534;49.960;8.018;2023-07-02T12:35:08;18.57;;;10.70;;
6987;SDS011;3534;49.960;8.018;2023-07-02T12:37:35;23.50;;;12.00;;
6987;SDS011;3534;49.960;8.018;2023-07-02T12:40:08;22.50;;;12.33;;
6987;SDS011;3534;49.960;8.018;2023-07-02T12:42:36;21.03;;;11.93;;
6987;SDS011;3534;49.960;8.018;2023-07-02T12:45:04;20.40;;;11.40;;
6987;SDS011;3534;49.960;8.018;2023-07-02T12:47:32;16.40;;;9.97;;
6987;SDS011;3534;49.960;8.018;2023-07-02T12:49:58;21.30;;;12.20;;
6987;SDS011;3534;49.960;8.018;2023-07-02T12:52:25;20.13;;;11.33;;
6987;SDS011;3534;49.960;8.018;2023-07-02T12:54:52;23.00;;;11.13;;
6987;SDS011;3534;49.960;8.018;2023-07-02T12:57:18;21.33;;;10.80;;
6987;SDS011;3534;49.960;8.018;2023-07-02T12:59:45;21.50;;;11.70;;
6987;SDS011;3534;49.960;8.018;2023-07-02T13:02:13;23.40;;;11.00;;
6987;SDS011;3534;49.960;8.018;2023-07-02T13:04:40;22.73;;;10.30;;
6987;SDS011;3534;49.960;8.018;2023-07-02T13:07:07;28.43;;;12.00;;
6987;SDS011;3534;49.960;8.018;2023-07-02T13:09:33;21.30;;;11.50;;
6987;SDS011;3534;49.960;8.018;2023-07-02T13:12:00;21.60;;;11.50;;
6987;SDS011;3534;49.960;8.018;2023-07-02T13:14:27;22.60;;;12.30;;
6987;SDS011;3534;49.960;8.018;2023-07-02T13:16:53;22.03;;;12.17;;
6987;SDS011;3534;49.960;8.018;2023-07-02T13:19:21;19.07;;;12.07;;
6987;SDS011;3534;49.960;8.018;2023-07-02T13:21:48;21.07;;;11.33;;
6987;SDS011;3534;49.960;8.018;2023-07-02T13:24:14;20.90;;;11.47;;
6987;SDS011;3534;49.960;8.018;2023-07-02T13:26:41;23.37;;;11.70;;
6987;SDS011;3534;49.960;8.018;2023-07-02T13:29:08;24.03;;;11.80;;
6987;SDS011;3534;49.960;8.018;2023-07-02T13:31:34;19.47;;;11.33;;
6987;SDS011;3534;49.960;8.018;2023-07-02T13:34:01;21.23;;;11.43;;
6987;SDS011;3534;49.960;8.018;2023-07-02T13:36:29;23.63;;;11.00;;
6987;SDS011;3534;49.960;8.018;2023-07-02T13:38:56;20.70;;;11.90;;
6987;SDS011;3534;49.960;8.018;2023-07-02T13:41:22;19.40;;;11.27;;
6987;SDS011;3534;49.960;8.018;2023-07-02T13:43:49;16.90;;;10.03;;
6987;SDS011;3534;49.960;8.018;2023-07-02T13:46:15;19.60;;;11.30;;
6987;SDS011;3534;49.960;8.018;2023-07-02T13:48:42;20.50;;;11.03;;
6987;SDS011;3534;49.960;8.018;2023-07-02T13:51:09;21.30;;;11.00;;
6987;SDS011;3534;49.960;8.018;2023-07-02T13:53:37;19.57;;;10.77;;
6987;SDS011;3534;49.960;8.018;2023-07-02T13:56:03;19.00;;;11.33;;
6987;SDS011;3534;49.960;8.018;2023-07-02T14:01:12;20.83;;;11.33;;
6987;SDS011;3534;49.960;8.018;2023-07-02T14:03:39;23.30;;;12.97;;
6987;SDS011;3534;49.960;8.018;2023-07-02T14:06:06;23.00;;;11.33;;
6987;SDS011;3534;49.960;8.018;2023-07-02T14:08:34;18.90;;;10.70;;
6987;SDS011;3534;49.960;8.018;2023-07-02T14:11:01;21.07;;;11.90;;
6987;SDS011;3534;49.960;8.018;2023-07-02T14:13:28;21.23;;;11.43;;
6987;SDS011;3534;49.960;8.018;2023-07-02T14:15:55;19.37;;;11.67;;
6987;SDS011;3534;49.960;8.018;2023-07-02T14:18:23;18.60;;;11.47;;
6987;SDS011;3534;49.960;8.018;2023-07-02T14:20:50;18.30;;;11.50;;
6987;SDS011;3534;49.960;8.018;2023-07-02T14:23:16;22.10;;;11.70;;
6987;SDS011;3534;49.960;8.018;2023-07-02T14:25:43;26.63;;;11.80;;
6987;SDS011;3534;49.960;8.018;2023-07-02T14:28:10;21.20;;;12.33;;
6987;SDS011;3534;49.960;8.018;2023-07-02T14:30:37;17.97;;;11.10;;
6987;SDS011;3534;49.960;8.018;2023-07-02T14:33:04;25.20;;;13.60;;
6987;SDS011;3534;49.960;8.018;2023-07-02T14:35:33;18.93;;;10.83;;
6987;SDS011;3534;49.960;8.018;2023-07-02T14:38:00;22.33;;;11.43;;
6987;SDS011;3534;49.960;8.018;2023-07-02T14:40:27;20.70;;;11.20;;
6987;SDS011;3534;49.960;8.018;2023-07-02T14:42:53;21.90;;;10.60;;
6987;SDS011;3534;49.960;8.018;2023-07-02T14:45:20;22.43;;;10.87;;
6987;SDS011;3534;49.960;8.018;2023-07-02T14:47:46;21.00;;;11.73;;
6987;SDS011;3534;49.960;8.018;2023-07-02T14:50:13;19.60;;;12.40;;
6987;SDS011;3534;49.960;8.018;2023-07-02T14:52:41;25.00;;;13.47;;
6987;SDS011;3534;49.960;8.018;2023-07-02T14:55:08;18.87;;;10.90;;
6987;SDS011;3534;49.960;8.018;2023-07-02T14:57:35;27.70;;;16.40;;
6987;SDS011;3534;49.960;8.018;2023-07-02T15:00:01;25.47;;;11.53;;
6987;SDS011;3534;49.960;8.018;2023-07-02T15:02:29;28.23;;;15.10;;